sensor_id;sensor_type;location;lat;lon;timestamp;pressure;altitude;pressure_sealevel;temperature;humidity
2675;BME280;1347;42.122;24.746;2023-04-08T00:00:27;99787.63;;;8.33;61.26
2675;BME280;1347;42.122;24.746;2023-04-08T00:02:54;99775.06;;;8.44;61.17
2675;BME280;1347;42.122;24.746;2023-04-08T00:05:21;99782.03;;;8.42;61.00
2675;BME280;1347;42.122;24.746;2023-04-08T00:07:47;99787.06;;;8.56;61.14
2675;BME280;1347;42.122;24.746;2023-04-08T00:10:14;99787.28;;;8.63;60.70
2675;BME280;1347;42.122;24.746;2023-04-08T00:12:41;99789.66;;;8.64;60.47
2675;BME280;1347;42.122;24.746;2023-04-08T00:15:09;99778.47;;;8.69;60.47
2675;BME280;1347;42.122;24.746;2023-04-08T00:17:37;99781.88;;;8.66;59.89
2675;BME280;1347;42.122;24.746;2023-04-08T00:20:05;99786.25;;;8.55;59.80
2675;BME280;1347;42.122;24.746;2023-04-08T00:22:32;99787.56;;;8.45;60.49
2675;BME280;1347;42.122;24.746;2023-04-08T00:24:59;99794.78;;;8.38;60.78
2675;BME280;1347;42.122;24.746;2023-04-08T00:27:26;99793.91;;;8.34;61.23
2675;BME280;1347;42.122;24.746;2023-04-08T00:29:53;99797.28;;;8.31;61.49
2675;BME280;1347;42.122;24.746;2023-04-08T00:32:20;99794.56;;;8.31;61.53
2675;BME280;1347;42.122;24.746;2023-04-08T00:34:48;99792.44;;;8.24;62.20
2675;BME280;1347;42.122;24.746;2023-04-08T00:37:15;99788.91;;;8.24;62.37
2675;BME280;1347;42.122;24.746;2023-04-08T00:39:42;99789.25;;;8.22;62.84
2675;BME280;1347;42.122;24.746;2023-04-08T00:42:09;99792.75;;;8.23;63.09
2675;BME280;1347;42.122;24.746;2023-04-08T00:44:36;99789.25;;;8.22;63.44
2675;BME280;1347;42.122;24.746;2023-04-08T00:47:03;99796.63;;;8.22;64.04
2675;BME280;1347;42.122;24.746;2023-04-08T00:49:30;99793.56;;;8.23;64.49
2675;BME280;1347;42.122;24.746;2023-04-08T00:51:59;99802.91;;;8.22;65.40
2675;BME280;1347;42.122;24.746;2023-04-08T00:54:26;99802.44;;;8.20;66.58
2675;BME280;1347;42.122;24.746;2023-04-08T00:56:53;99800.41;;;8.17;67.40
2675;BME280;1347;42.122;24.746;2023-04-08T00:59:20;99803.38;;;8.12;68.40
2675;BME280;1347;42.122;24.746;2023-04-08T01:01:54;99810.66;;;8.08;69.84
2675;BME280;1347;42.122;24.746;2023-04-08T01:04:28;99804.75;;;8.06;71.23
2675;BME280;1347;42.122;24.746;2023-04-08T01:07:06;99809.78;;;8.04;72.76
2675;BME280;1347;42.122;24.746;2023-04-08T01:09:37;99820.31;;;8.05;73.53
2675;BME280;1347;42.122;24.746;2023-04-08T01:12:07;99821.84;;;8.03;74.41
2675;BME280;1347;42.122;24.746;2023-04-08T01:14:38;99820.25;;;8.02;75.13
2675;BME280;1347;42.122;24.746;2023-04-08T01:17:08;99821.25;;;7.97;75.86
2675;BME280;1347;42.122;24.746;2023-04-08T01:19:38;99824.09;;;8.01;75.98
2675;BME280;1347;42.122;24.746;2023-04-08T01:22:14;99826.38;;;7.99;76.46
2675;BME280;1347;42.122;24.746;2023-04-08T01:24:45;99822.06;;;7.98;76.79
2675;BME280;1347;42.122;24.746;2023-04-08T01:27:15;99818.44;;;7.94;77.14
2675;BME280;1347;42.122;24.746;2023-04-08T01:29:44;99816.47;;;7.94;77.45
2675;BME280;1347;42.122;24.746;2023-04-08T01:32:13;99816.84;;;7.93;77.97
2675;BME280;1347;42.122;24.746;2023-04-08T01:34:42;99816.75;;;7.89;78.71
2675;BME280;1347;42.122;24.746;2023-04-08T01:37:10;99812.88;;;7.90;79.25
2675;BME280;1347;42.122;24.746;2023-04-08T01:39:38;99812.06;;;7.90;79.57
2675;BME280;1347;42.122;24.746;2023-04-08T01:42:07;99814.13;;;7.93;79.76
2675;BME280;1347;42.122;24.746;2023-04-08T01:44:37;99817.66;;;7.93;79.83
2675;BME280;1347;42.122;24.746;2023-04-08T01:47:06;99830.38;;;7.89;80.32
2675;BME280;1347;42.122;24.746;2023-04-08T01:49:33;99833.78;;;7.86;80.93
2675;BME280;1347;42.122;24.746;2023-04-08T01:52:01;99826.72;;;7.85;81.28
2675;BME280;1347;42.122;24.746;2023-04-08T01:54:29;99829.25;;;7.78;82.16
2675;BME280;1347;42.122;24.746;2023-04-08T01:56:56;99838.25;;;7.79;82.74
2675;BME280;1347;42.122;24.746;2023-04-08T01:59:29;99839.72;;;7.76;83.52
2675;BME280;1347;42.122;24.746;2023-04-08T02:01:59;99835.84;;;7.77;83.68
2675;BME280;1347;42.122;24.746;2023-04-08T02:04:27;99850.63;;;7.76;84.42
2675;BME280;1347;42.122;24.746;2023-04-08T02:06:55;99839.25;;;7.74;85.10
2675;BME280;1347;42.122;24.746;2023-04-08T02:09:24;99840.28;;;7.69;85.88
2675;BME280;1347;42.122;24.746;2023-04-08T02:11:51;99835.63;;;7.70;86.29
2675;BME280;1347;42.122;24.746;2023-04-08T02:14:18;99841.78;;;7.67;87.11
2675;BME280;1347;42.122;24.746;2023-04-08T02:16:49;99830.41;;;7.65;87.75
2675;BME280;1347;42.122;24.746;2023-04-08T02:19:24;99840.63;;;7.68;88.24
2675;BME280;1347;42.122;24.746;2023-04-08T02:21:56;99848.81;;;7.68;88.80
2675;BME280;1347;42.122;24.746;2023-04-08T02:24:25;99852.81;;;7.70;89.28
2675;BME280;1347;42.122;24.746;2023-04-08T02:26:54;99848.81;;;7.68;89.80
2675;BME280;1347;42.122;24.746;2023-04-08T02:29:22;99846.88;;;7.68;90.48
2675;BME280;1347;42.122;24.746;2023-04-08T02:31:50;99848.34;;;7.66;90.89
2675;BME280;1347;42.122;24.746;2023-04-08T02:34:20;99838.91;;;7.63;91.46
2675;BME280;1347;42.122;24.746;2023-04-08T02:36:48;99847.47;;;7.62;91.94
2675;BME280;1347;42.122;24.746;2023-04-08T02:39:15;99845.16;;;7.64;92.33
2675;BME280;1347;42.122;24.746;2023-04-08T02:41:42;99848.47;;;7.57;92.74
2675;BME280;1347;42.122;24.746;2023-04-08T02:44:09;99847.34;;;7.58;93.02
2675;BME280;1347;42.122;24.746;2023-04-08T02:46:36;99849.28;;;7.58;93.36
2675;BME280;1347;42.122;24.746;2023-04-08T02:49:03;99841.44;;;7.56;93.88
2675;BME280;1347;42.122;24.746;2023-04-08T02:51:31;99848.16;;;7.59;94.19
2675;BME280;1347;42.122;24.746;2023-04-08T02:53:58;99857.00;;;7.56;95.03
2675;BME280;1347;42.122;24.746;2023-04-08T02:56:26;99844.81;;;7.53;95.67
2675;BME280;1347;42.122;24.746;2023-04-08T02:58:52;99862.38;;;7.52;96.09
2675;BME280;1347;42.122;24.746;2023-04-08T03:01:20;99863.03;;;7.49;96.93
2675;BME280;1347;42.122;24.746;2023-04-08T03:03:47;99863.81;;;7.50;97.10
2675;BME280;1347;42.122;24.746;2023-04-08T03:06:14;99864.84;;;7.45;97.81
2675;BME280;1347;42.122;24.746;2023-04-08T03:08:42;99872.22;;;7.45;98.24
2675;BME280;1347;42.122;24.746;2023-04-08T03:11:09;99867.91;;;7.44;98.67
2675;BME280;1347;42.122;24.746;2023-04-08T03:13:36;99874.94;;;7.45;98.71
2675;BME280;1347;42.122;24.746;2023-04-08T03:16:04;99865.06;;;7.40;99.37
2675;BME280;1347;42.122;24.746;2023-04-08T03:18:31;99868.59;;;7.41;99.59
2675;BME280;1347;42.122;24.746;2023-04-08T03:20:58;99872.91;;;7.42;99.76
2675;BME280;1347;42.122;24.746;2023-04-08T03:23:25;99879.59;;;7.44;99.71
2675;BME280;1347;42.122;24.746;2023-04-08T03:25:54;99872.00;;;7.37;100.00
2675;BME280;1347;42.122;24.746;2023-04-08T03:28:21;99875.84;;;7.36;100.00
2675;BME280;1347;42.122;24.746;2023-04-08T03:30:48;99863.81;;;7.37;100.00
2675;BME280;1347;42.122;24.746;2023-04-08T03:33:14;99871.06;;;7.33;100.00
2675;BME280;1347;42.122;24.746;2023-04-08T03:35:41;99878.81;;;7.31;100.00
2675;BME280;1347;42.122;24.746;2023-04-08T03:38:08;99867.78;;;7.28;100.00
2675;BME280;1347;42.122;24.746;2023-04-08T03:40:35;99877.56;;;7.29;100.00
2675;BME280;1347;42.122;24.746;2023-04-08T03:43:03;99873.81;;;7.21;100.00
2675;BME280;1347;42.122;24.746;2023-04-08T03:45:33;99872.31;;;7.24;100.00
2675;BME280;1347;42.122;24.746;2023-04-08T03:47:59;99877.44;;;7.25;100.00
2675;BME280;1347;42.122;24.746;2023-04-08T03:50:26;99884.34;;;7.23;100.00
2675;BME280;1347;42.122;24.746;2023-04-08T03:52:53;99882.41;;;7.23;100.00
2675;BME280;1347;42.122;24.746;2023-04-08T03:55:20;99881.63;;;7.23;100.00
2675;BME280;1347;42.122;24.746;2023-04-08T03:57:47;99888.34;;;7.25;100.00
2675;BME280;1347;42.122;24.746;2023-04-08T04:00:16;99891.38;;;7.24;100.00
2675;BME280;1347;42.122;24.746;2023-04-08T04:02:43;99891.06;;;7.25;100.00
2675;BME280;1347;42.122;24.746;2023-04-08T04:05:10;99888.66;;;7.24;100.00
2675;BME280;1347;42.122;24.746;2023-04-08T04:07:37;99888.78;;;7.27;100.00
2675;BME280;1347;42.122;24.746;2023-04-08T04:10:05;99886.75;;;7.24;100.00
2675;BME280;1347;42.122;24.746;2023-04-08T04:12:32;99885.13;;;7.23;100.00
2675;BME280;1347;42.122;24.746;2023-04-08T04:14:59;99887.19;;;7.26;100.00
2675;BME280;1347;42.122;24.746;2023-04-08T04:17:27;99892.88;;;7.21;100.00
2675;BME280;1347;42.122;24.746;2023-04-08T04:19:54;99901.97;;;7.25;100.00
2675;BME280;1347;42.122;24.746;2023-04-08T04:22:21;99893.13;;;7.28;100.00
2675;BME280;1347;42.122;24.746;2023-04-08T04:24:48;99905.50;;;7.26;100.00
2675;BME280;1347;42.122;24.746;2023-04-08T04:27:15;99906.28;;;7.26;100.00
2675;BME280;1347;42.122;24.746;2023-04-08T04:29:42;99902.09;;;7.29;100.00
2675;BME280;1347;42.122;24.746;2023-04-08T04:32:09;99902.22;;;7.32;100.00
2675;BME280;1347;42.122;24.746;2023-04-08T04:34:37;99894.03;;;7.32;100.00
2675;BME280;1347;42.122;24.746;2023-04-08T04:37:04;99894.16;;;7.36;100.00
2675;BME280;1347;42.122;24.746;2023-04-08T04:39:31;99901.06;;;7.33;100.00
2675;BME280;1347;42.122;24.746;2023-04-08T04:41:58;99904.38;;;7.39;100.00
2675;BME280;1347;42.122;24.746;2023-04-08T04:44:24;99907.25;;;7.43;100.00
2675;BME280;1347;42.122;24.746;2023-04-08T04:46:51;99898.69;;;7.44;100.00
2675;BME280;1347;42.122;24.746;2023-04-08T04:49:18;99906.34;;;7.51;100.00
2675;BME280;1347;42.122;24.746;2023-04-08T04:51:46;99906.34;;;7.51;100.00
2675;BME280;1347;42.122;24.746;2023-04-08T04:54:13;99909.16;;;7.54;100.00
2675;BME280;1347;42.122;24.746;2023-04-08T04:56:40;99908.16;;;7.59;100.00
2675;BME280;1347;42.122;24.746;2023-04-08T04:59:07;99907.81;;;7.60;100.00
2675;BME280;1347;42.122;24.746;2023-04-08T05:01:34;99911.81;;;7.63;100.00
2675;BME280;1347;42.122;24.746;2023-04-08T05:04:01;99911.25;;;7.69;100.00
2675;BME280;1347;42.122;24.746;2023-04-08T05:06:28;99909.31;;;7.70;100.00
2675;BME280;1347;42.122;24.746;2023-04-08T05:08:56;99912.84;;;7.83;100.00
2675;BME280;1347;42.122;24.746;2023-04-08T05:11:23;99924.66;;;7.99;100.00
2675;BME280;1347;42.122;24.746;2023-04-08T05:13:50;99918.19;;;8.03;100.00
2675;BME280;1347;42.122;24.746;2023-04-08T05:16:18;99919.66;;;8.13;100.00
2675;BME280;1347;42.122;24.746;2023-04-08T05:18:44;99924.19;;;8.09;100.00
2675;BME280;1347;42.122;24.746;2023-04-08T05:21:11;99935.13;;;7.97;100.00
2675;BME280;1347;42.122;24.746;2023-04-08T05:23:38;99930.44;;;7.97;100.00
2675;BME280;1347;42.122;24.746;2023-04-08T05:26:07;99926.25;;;8.00;100.00
2675;BME280;1347;42.122;24.746;2023-04-08T05:28:34;99937.03;;;7.96;100.00
2675;BME280;1347;42.122;24.746;2023-04-08T05:31:01;99939.22;;;8.03;100.00
2675;BME280;1347;42.122;24.746;2023-04-08T05:33:28;99932.50;;;8.12;100.00
2675;BME280;1347;42.122;24.746;2023-04-08T05:35:55;99933.38;;;8.29;100.00
2675;BME280;1347;42.122;24.746;2023-04-08T05:38:22;99940.34;;;8.38;100.00
2675;BME280;1347;42.122;24.746;2023-04-08T05:40:49;99933.81;;;8.55;100.00
2675;BME280;1347;42.122;24.746;2023-04-08T05:43:17;99929.91;;;8.68;99.28
2675;BME280;1347;42.122;24.746;2023-04-08T05:45:44;99934.22;;;8.69;98.91
2675;BME280;1347;42.122;24.746;2023-04-08T05:48:11;99940.34;;;8.78;98.65
2675;BME280;1347;42.122;24.746;2023-04-08T05:50:38;99939.41;;;8.86;98.04
2675;BME280;1347;42.122;24.746;2023-04-08T05:53:05;99939.31;;;8.83;97.73
2675;BME280;1347;42.122;24.746;2023-04-08T05:55:32;99937.38;;;8.83;97.91
2675;BME280;1347;42.122;24.746;2023-04-08T05:57:59;99945.97;;;8.98;97.47
2675;BME280;1347;42.122;24.746;2023-04-08T06:00:27;99945.69;;;9.15;97.02
2675;BME280;1347;42.122;24.746;2023-04-08T06:02:54;99943.13;;;9.22;95.65
2675;BME280;1347;42.122;24.746;2023-04-08T06:05:21;99937.41;;;9.27;96.12
2675;BME280;1347;42.122;24.746;2023-04-08T06:07:48;99939.31;;;9.11;94.56
2675;BME280;1347;42.122;24.746;2023-04-08T06:10:16;99940.72;;;9.05;96.15
2675;BME280;1347;42.122;24.746;2023-04-08T06:12:42;99940.09;;;9.11;96.23
2675;BME280;1347;42.122;24.746;2023-04-08T06:15:09;99940.91;;;9.55;95.12
2675;BME280;1347;42.122;24.746;2023-04-08T06:17:38;99947.59;;;9.89;92.64
2675;BME280;1347;42.122;24.746;2023-04-08T06:20:06;99937.50;;;10.09;90.65
2675;BME280;1347;42.122;24.746;2023-04-08T06:22:33;99961.34;;;10.40;89.28
2675;BME280;1347;42.122;24.746;2023-04-08T06:25:01;99945.44;;;10.65;87.37
2675;BME280;1347;42.122;24.746;2023-04-08T06:27:28;99953.69;;;10.84;86.97
2675;BME280;1347;42.122;24.746;2023-04-08T06:29:55;99948.47;;;11.18;84.75
2675;BME280;1347;42.122;24.746;2023-04-08T06:32:22;99950.78;;;11.58;82.95
2675;BME280;1347;42.122;24.746;2023-04-08T06:34:50;99951.47;;;11.74;81.00
2675;BME280;1347;42.122;24.746;2023-04-08T06:37:17;99958.03;;;11.47;81.17
2675;BME280;1347;42.122;24.746;2023-04-08T06:39:44;99952.28;;;11.32;81.73
2675;BME280;1347;42.122;24.746;2023-04-08T06:42:11;99950.00;;;10.96;83.06
2675;BME280;1347;42.122;24.746;2023-04-08T06:44:38;99951.97;;;10.76;84.18
2675;BME280;1347;42.122;24.746;2023-04-08T06:47:05;99949.13;;;11.11;82.50
2675;BME280;1347;42.122;24.746;2023-04-08T06:49:32;99951.22;;;11.60;82.22
2675;BME280;1347;42.122;24.746;2023-04-08T06:52:00;99951.41;;;11.93;78.99
2675;BME280;1347;42.122;24.746;2023-04-08T06:54:27;99948.41;;;12.02;78.51
2675;BME280;1347;42.122;24.746;2023-04-08T06:56:54;99948.09;;;12.33;76.18
2675;BME280;1347;42.122;24.746;2023-04-08T06:59:21;99941.41;;;13.20;74.01
2675;BME280;1347;42.122;24.746;2023-04-08T07:01:52;99938.97;;;13.96;69.78
2675;BME280;1347;42.122;24.746;2023-04-08T07:04:19;99938.53;;;13.47;70.63
2675;BME280;1347;42.122;24.746;2023-04-08T07:06:46;99937.97;;;14.19;69.54
2675;BME280;1347;42.122;24.746;2023-04-08T07:09:14;99943.88;;;14.83;66.74
2675;BME280;1347;42.122;24.746;2023-04-08T07:11:41;99943.69;;;16.58;62.18
2675;BME280;1347;42.122;24.746;2023-04-08T07:14:08;99951.38;;;19.36;54.50
2675;BME280;1347;42.122;24.746;2023-04-08T07:16:35;99957.53;;;20.04;50.94
2675;BME280;1347;42.122;24.746;2023-04-08T07:19:04;99956.00;;;18.48;52.74
2675;BME280;1347;42.122;24.746;2023-04-08T07:21:33;99949.94;;;17.67;55.54
2675;BME280;1347;42.122;24.746;2023-04-08T07:24:03;99956.75;;;19.23;52.77
2675;BME280;1347;42.122;24.746;2023-04-08T07:26:32;99954.41;;;18.47;51.80
2675;BME280;1347;42.122;24.746;2023-04-08T07:29:01;99954.56;;;17.11;54.10
2675;BME280;1347;42.122;24.746;2023-04-08T07:31:28;99952.84;;;16.16;57.43
2675;BME280;1347;42.122;24.746;2023-04-08T07:33:57;99954.03;;;15.90;57.98
2675;BME280;1347;42.122;24.746;2023-04-08T07:36:28;99956.56;;;17.14;56.00
2675;BME280;1347;42.122;24.746;2023-04-08T07:38:54;99952.75;;;17.60;54.09
2675;BME280;1347;42.122;24.746;2023-04-08T07:41:24;99936.31;;;17.87;53.55
2675;BME280;1347;42.122;24.746;2023-04-08T07:43:53;99953.09;;;19.26;50.21
2675;BME280;1347;42.122;24.746;2023-04-08T07:46:20;99948.03;;;21.47;45.98
2675;BME280;1347;42.122;24.746;2023-04-08T07:48:47;99951.84;;;22.96;42.26
2675;BME280;1347;42.122;24.746;2023-04-08T07:51:14;99938.81;;;22.31;41.58
2675;BME280;1347;42.122;24.746;2023-04-08T07:53:41;99948.84;;;21.64;42.45
2675;BME280;1347;42.122;24.746;2023-04-08T07:56:11;99945.97;;;22.49;41.84
2675;BME280;1347;42.122;24.746;2023-04-08T07:58:39;99950.03;;;21.47;43.11
2675;BME280;1347;42.122;24.746;2023-04-08T08:01:17;99952.88;;;19.98;45.38
2675;BME280;1347;42.122;24.746;2023-04-08T08:03:45;99957.81;;;20.56;45.25
2675;BME280;1347;42.122;24.746;2023-04-08T08:06:13;99954.66;;;19.31;47.31
2675;BME280;1347;42.122;24.746;2023-04-08T08:08:40;99956.88;;;18.79;48.92
2675;BME280;1347;42.122;24.746;2023-04-08T08:11:07;99954.56;;;19.34;48.37
2675;BME280;1347;42.122;24.746;2023-04-08T08:13:34;99958.47;;;19.71;46.92
2675;BME280;1347;42.122;24.746;2023-04-08T08:16:01;99949.88;;;19.31;48.09
2675;BME280;1347;42.122;24.746;2023-04-08T08:18:29;99957.59;;;20.47;46.64
2675;BME280;1347;42.122;24.746;2023-04-08T08:20:56;99953.09;;;21.68;44.44
2675;BME280;1347;42.122;24.746;2023-04-08T08:23:23;99955.59;;;22.60;42.29
2675;BME280;1347;42.122;24.746;2023-04-08T08:25:58;99946.56;;;23.39;40.90
2675;BME280;1347;42.122;24.746;2023-04-08T08:28:25;99946.81;;;22.74;40.66
2675;BME280;1347;42.122;24.746;2023-04-08T08:30:52;99951.97;;;21.66;42.20
2675;BME280;1347;42.122;24.746;2023-04-08T08:33:19;99951.63;;;19.75;45.75
2675;BME280;1347;42.122;24.746;2023-04-08T08:35:47;99955.81;;;19.33;46.93
2675;BME280;1347;42.122;24.746;2023-04-08T08:38:14;99947.91;;;22.03;43.77
2675;BME280;1347;42.122;24.746;2023-04-08T08:40:42;99944.91;;;23.55;39.78
2675;BME280;1347;42.122;24.746;2023-04-08T08:43:09;99945.13;;;25.94;37.49
2675;BME280;1347;42.122;24.746;2023-04-08T08:45:38;99954.78;;;28.86;33.87
2675;BME280;1347;42.122;24.746;2023-04-08T08:48:05;99956.88;;;29.59;31.49
2675;BME280;1347;42.122;24.746;2023-04-08T08:50:32;99945.25;;;28.83;31.30
2675;BME280;1347;42.122;24.746;2023-04-08T08:53:01;99945.13;;;27.82;33.44
2675;BME280;1347;42.122;24.746;2023-04-08T08:55:30;99946.25;;;30.64;30.51
2675;BME280;1347;42.122;24.746;2023-04-08T08:57:58;99946.50;;;28.82;30.57
2675;BME280;1347;42.122;24.746;2023-04-08T09:00:32;99938.94;;;27.09;32.82
2675;BME280;1347;42.122;24.746;2023-04-08T09:03:15;99940.69;;;26.43;33.56
2675;BME280;1347;42.122;24.746;2023-04-08T09:05:50;99942.72;;;24.56;34.93
2675;BME280;1347;42.122;24.746;2023-04-08T09:08:29;99939.16;;;23.33;36.85
2675;BME280;1347;42.122;24.746;2023-04-08T09:11:10;99928.78;;;21.85;39.05
2675;BME280;1347;42.122;24.746;2023-04-08T09:13:38;99936.63;;;20.82;40.93
2675;BME280;1347;42.122;24.746;2023-04-08T09:16:07;99936.41;;;18.99;45.20
2675;BME280;1347;42.122;24.746;2023-04-08T09:18:35;99939.81;;;18.39;45.19
2675;BME280;1347;42.122;24.746;2023-04-08T09:21:03;99929.34;;;17.61;47.63
2675;BME280;1347;42.122;24.746;2023-04-08T09:23:40;99923.50;;;17.48;49.23
2675;BME280;1347;42.122;24.746;2023-04-08T09:26:08;99925.56;;;17.96;47.11
2675;BME280;1347;42.122;24.746;2023-04-08T09:28:36;99926.88;;;18.25;46.95
2675;BME280;1347;42.122;24.746;2023-04-08T09:31:21;99923.66;;;17.86;47.55
2675;BME280;1347;42.122;24.746;2023-04-08T09:33:48;99924.31;;;17.49;48.63
2675;BME280;1347;42.122;24.746;2023-04-08T09:36:16;99925.44;;;17.55;49.25
2675;BME280;1347;42.122;24.746;2023-04-08T09:38:44;99917.66;;;17.32;48.80
2675;BME280;1347;42.122;24.746;2023-04-08T09:41:13;99921.56;;;17.42;47.80
2675;BME280;1347;42.122;24.746;2023-04-08T09:43:43;99927.75;;;17.67;47.23
2675;BME280;1347;42.122;24.746;2023-04-08T09:46:14;99930.34;;;18.33;46.19
2675;BME280;1347;42.122;24.746;2023-04-08T09:48:48;99930.66;;;22.08;41.42
2675;BME280;1347;42.122;24.746;2023-04-08T09:51:16;99928.66;;;23.75;37.49
2675;BME280;1347;42.122;24.746;2023-04-08T09:53:47;99929.88;;;22.08;38.37
2675;BME280;1347;42.122;24.746;2023-04-08T09:56:16;99927.81;;;19.74;42.18
2675;BME280;1347;42.122;24.746;2023-04-08T09:58:51;99927.84;;;18.46;44.69
2675;BME280;1347;42.122;24.746;2023-04-08T10:01:25;99928.53;;;18.19;45.28
2675;BME280;1347;42.122;24.746;2023-04-08T10:03:54;99932.38;;;17.84;45.89
2675;BME280;1347;42.122;24.746;2023-04-08T10:06:27;99933.19;;;18.26;45.97
2675;BME280;1347;42.122;24.746;2023-04-08T10:08:56;99921.97;;;18.40;46.26
2675;BME280;1347;42.122;24.746;2023-04-08T10:11:25;99924.81;;;18.33;46.62
2675;BME280;1347;42.122;24.746;2023-04-08T10:13:52;99920.47;;;17.87;47.53
2675;BME280;1347;42.122;24.746;2023-04-08T10:16:20;99921.97;;;17.99;47.28
2675;BME280;1347;42.122;24.746;2023-04-08T10:18:50;99916.63;;;18.56;47.05
2675;BME280;1347;42.122;24.746;2023-04-08T10:21:36;99913.88;;;18.53;47.08
2675;BME280;1347;42.122;24.746;2023-04-08T10:24:08;99912.28;;;18.59;46.93
2675;BME280;1347;42.122;24.746;2023-04-08T10:26:37;99901.47;;;18.27;47.82
2675;BME280;1347;42.122;24.746;2023-04-08T10:29:34;99910.47;;;18.42;48.42
2675;BME280;1347;42.122;24.746;2023-04-08T10:32:01;99905.19;;;17.65;48.65
2675;BME280;1347;42.122;24.746;2023-04-08T10:34:28;99904.78;;;17.70;49.04
2675;BME280;1347;42.122;24.746;2023-04-08T10:36:56;99902.47;;;17.58;49.07
2675;BME280;1347;42.122;24.746;2023-04-08T10:39:27;99888.78;;;17.85;48.75
2675;BME280;1347;42.122;24.746;2023-04-08T10:41:56;99895.75;;;18.03;48.39
2675;BME280;1347;42.122;24.746;2023-04-08T10:44:23;99894.81;;;18.55;47.35
2675;BME280;1347;42.122;24.746;2023-04-08T10:46:52;99887.09;;;18.73;47.02
2675;BME280;1347;42.122;24.746;2023-04-08T10:49:19;99884.69;;;18.41;46.84
2675;BME280;1347;42.122;24.746;2023-04-08T10:51:46;99881.97;;;18.34;46.89
2675;BME280;1347;42.122;24.746;2023-04-08T10:54:14;99876.59;;;18.54;47.45
2675;BME280;1347;42.122;24.746;2023-04-08T10:56:48;99874.75;;;18.78;46.94
2675;BME280;1347;42.122;24.746;2023-04-08T10:59:16;99883.56;;;18.72;46.55
2675;BME280;1347;42.122;24.746;2023-04-08T11:01:45;99871.00;;;18.61;46.93
2675;BME280;1347;42.122;24.746;2023-04-08T11:04:13;99868.50;;;19.00;45.96
2675;BME280;1347;42.122;24.746;2023-04-08T11:06:42;99866.00;;;18.79;47.10
2675;BME280;1347;42.122;24.746;2023-04-08T11:09:09;99863.16;;;18.15;47.31
2675;BME280;1347;42.122;24.746;2023-04-08T11:11:36;99861.94;;;17.78;48.66
2675;BME280;1347;42.122;24.746;2023-04-08T11:14:05;99863.81;;;17.33;49.74
2675;BME280;1347;42.122;24.746;2023-04-08T11:16:33;99855.78;;;16.90;49.83
2675;BME280;1347;42.122;24.746;2023-04-08T11:19:01;99856.22;;;16.82;50.68
2675;BME280;1347;42.122;24.746;2023-04-08T11:21:29;99853.53;;;16.68;50.37
2675;BME280;1347;42.122;24.746;2023-04-08T11:23:56;99856.25;;;16.78;49.90
2675;BME280;1347;42.122;24.746;2023-04-08T11:26:24;99847.50;;;16.87;49.78
2675;BME280;1347;42.122;24.746;2023-04-08T11:28:52;99840.66;;;17.06;50.36
2675;BME280;1347;42.122;24.746;2023-04-08T11:31:21;99836.09;;;16.71;51.04
2675;BME280;1347;42.122;24.746;2023-04-08T11:33:52;99838.63;;;16.26;51.50
2675;BME280;1347;42.122;24.746;2023-04-08T11:36:19;99838.19;;;16.38;50.98
2675;BME280;1347;42.122;24.746;2023-04-08T11:38:46;99838.91;;;16.64;51.12
2675;BME280;1347;42.122;24.746;2023-04-08T11:41:13;99825.81;;;16.75;50.59
2675;BME280;1347;42.122;24.746;2023-04-08T11:43:52;99819.97;;;17.21;49.55
2675;BME280;1347;42.122;24.746;2023-04-08T11:46:19;99818.06;;;17.11;49.59
2675;BME280;1347;42.122;24.746;2023-04-08T11:49:01;99817.56;;;17.26;50.67
2675;BME280;1347;42.122;24.746;2023-04-08T11:51:28;99816.09;;;17.63;49.49
2675;BME280;1347;42.122;24.746;2023-04-08T11:53:55;99807.44;;;17.54;49.11
2675;BME280;1347;42.122;24.746;2023-04-08T11:56:22;99802.81;;;17.40;49.49
2675;BME280;1347;42.122;24.746;2023-04-08T11:58:50;99802.56;;;17.20;49.57
2675;BME280;1347;42.122;24.746;2023-04-08T12:01:17;99801.88;;;17.06;50.73
2675;BME280;1347;42.122;24.746;2023-04-08T12:03:58;99799.03;;;17.16;50.98
2675;BME280;1347;42.122;24.746;2023-04-08T12:06:27;99798.59;;;17.21;50.76
2675;BME280;1347;42.122;24.746;2023-04-08T12:08:56;99796.28;;;17.16;51.01
2675;BME280;1347;42.122;24.746;2023-04-08T12:11:23;99797.06;;;17.17;50.41
2675;BME280;1347;42.122;24.746;2023-04-08T12:13:50;99788.59;;;17.38;50.84
2675;BME280;1347;42.122;24.746;2023-04-08T12:16:17;99782.63;;;17.84;49.79
2675;BME280;1347;42.122;24.746;2023-04-08T12:18:46;99789.88;;;18.43;48.85
2675;BME280;1347;42.122;24.746;2023-04-08T12:21:13;99780.81;;;18.38;48.37
2675;BME280;1347;42.122;24.746;2023-04-08T12:23:42;99779.00;;;18.25;48.03
2675;BME280;1347;42.122;24.746;2023-04-08T12:26:09;99779.00;;;18.55;48.32
2675;BME280;1347;42.122;24.746;2023-04-08T12:28:36;99779.81;;;18.86;48.03
2675;BME280;1347;42.122;24.746;2023-04-08T12:31:03;99774.66;;;18.85;48.03
2675;BME280;1347;42.122;24.746;2023-04-08T12:33:30;99774.94;;;18.33;48.80
2675;BME280;1347;42.122;24.746;2023-04-08T12:35:57;99762.09;;;17.78;50.23
2675;BME280;1347;42.122;24.746;2023-04-08T12:38:25;99759.59;;;17.50;50.57
2675;BME280;1347;42.122;24.746;2023-04-08T12:40:54;99761.91;;;17.55;50.71
2675;BME280;1347;42.122;24.746;2023-04-08T12:43:21;99763.44;;;17.11;51.75
2675;BME280;1347;42.122;24.746;2023-04-08T12:45:49;99764.03;;;16.88;52.15
2675;BME280;1347;42.122;24.746;2023-04-08T12:48:16;99757.88;;;17.18;51.50
2675;BME280;1347;42.122;24.746;2023-04-08T12:50:43;99759.94;;;17.04;51.44
2675;BME280;1347;42.122;24.746;2023-04-08T12:53:10;99750.19;;;17.37;51.83
2675;BME280;1347;42.122;24.746;2023-04-08T12:55:38;99749.63;;;17.56;51.41
2675;BME280;1347;42.122;24.746;2023-04-08T12:58:06;99749.44;;;17.77;50.63
2675;BME280;1347;42.122;24.746;2023-04-08T13:00:35;99743.47;;;17.34;51.34
2675;BME280;1347;42.122;24.746;2023-04-08T13:03:03;99738.69;;;16.90;52.29
2675;BME280;1347;42.122;24.746;2023-04-08T13:05:31;99739.53;;;16.80;51.91
2675;BME280;1347;42.122;24.746;2023-04-08T13:07:58;99739.91;;;16.85;52.87
2675;BME280;1347;42.122;24.746;2023-04-08T13:10:25;99737.63;;;16.70;52.67
2675;BME280;1347;42.122;24.746;2023-04-08T13:12:52;99735.06;;;16.31;53.48
2675;BME280;1347;42.122;24.746;2023-04-08T13:15:21;99734.44;;;15.95;53.85
2675;BME280;1347;42.122;24.746;2023-04-08T13:17:48;99735.25;;;15.81;54.63
2675;BME280;1347;42.122;24.746;2023-04-08T13:20:15;99726.88;;;16.06;54.44